createdAt,value
2023-03-02T00:04:39.849Z,0
2023-03-02T00:11:02.950Z,0
2023-03-02T00:17:22.780Z,0
2023-03-02T00:23:45.928Z,0
2023-03-02T00:30:05.758Z,0
2023-03-02T00:36:29.021Z,0
2023-03-02T00:42:48.959Z,0
2023-03-02T00:49:11.815Z,0
2023-03-02T00:55:31.861Z,0
2023-03-02T01:01:54.922Z,0
2023-03-02T01:08:14.753Z,0
2023-03-02T01:14:37.944Z,0
2023-03-02T01:20:57.774Z,0
2023-03-02T01:27:20.784Z,0
2023-03-02T01:33:40.793Z,0
2023-03-02T01:40:03.797Z,0
2023-03-02T01:46:23.775Z,0
2023-03-02T01:52:46.883Z,0
2023-03-02T01:59:06.775Z,0
2023-03-02T02:05:29.851Z,0
2023-03-02T02:11:49.893Z,0
2023-03-02T02:18:12.795Z,0
2023-03-02T02:24:32.919Z,0
2023-03-02T02:30:55.869Z,0
2023-03-02T02:37:15.766Z,0
2023-03-02T02:43:38.821Z,0
2023-03-02T02:49:58.796Z,0
2023-03-02T02:56:21.810Z,0
2023-03-02T03:02:41.772Z,0
2023-03-02T03:09:04.948Z,0
2023-03-02T03:15:24.879Z,0
2023-03-02T03:21:47.893Z,0
2023-03-02T03:28:07.906Z,0
2023-03-02T03:34:30.903Z,0
2023-03-02T03:40:50.874Z,0
2023-03-02T03:47:13.792Z,0
2023-03-02T03:53:33.766Z,0
2023-03-02T03:59:56.762Z,0
2023-03-02T04:15:28.684Z,0
2023-03-02T04:21:48.704Z,0
2023-03-02T04:28:11.764Z,0
2023-03-02T04:34:31.761Z,0
2023-03-02T04:40:54.797Z,0
2023-03-02T04:47:14.838Z,0
2023-03-02T04:53:37.894Z,0
2023-03-02T04:59:57.776Z,0
2023-03-02T05:06:20.879Z,0
2023-03-02T05:12:40.855Z,0
2023-03-02T05:19:03.817Z,0
2023-03-02T05:25:23.795Z,0
2023-03-02T05:31:46.868Z,0
2023-03-02T05:38:06.803Z,0
2023-03-02T05:44:29.823Z,0
2023-03-02T05:50:49.859Z,0
2023-03-02T05:57:12.854Z,0
2023-03-02T06:03:32.767Z,0
2023-03-02T06:09:55.897Z,0
2023-03-02T06:16:15.908Z,0
2023-03-02T06:22:38.768Z,0
2023-03-02T06:28:58.944Z,0
2023-03-02T06:35:21.993Z,0
2023-03-02T06:41:41.821Z,5.62
2023-03-02T06:48:04.971Z,5.62
2023-03-02T06:54:24.871Z,5.62
2023-03-02T07:00:47.841Z,5.62
2023-03-02T07:07:07.793Z,11.25
2023-03-02T07:13:30.859Z,11.25
2023-03-02T07:19:50.890Z,11.25
2023-03-02T07:26:13.861Z,16.88
2023-03-02T07:32:33.949Z,16.88
2023-03-02T07:38:56.864Z,16.88
2023-03-02T07:45:16.898Z,16.88
2023-03-02T07:51:39.814Z,22.5
2023-03-02T07:57:59.766Z,22.5
2023-03-02T08:04:22.978Z,22.5
2023-03-02T08:10:42.763Z,22.5
2023-03-02T08:17:05.877Z,28.12
2023-03-02T08:23:25.880Z,28.12
2023-03-02T08:29:48.850Z,28.12
2023-03-02T08:36:08.868Z,33.75
2023-03-02T08:42:31.787Z,33.75
2023-03-02T08:48:51.890Z,33.75
2023-03-02T08:55:14.786Z,33.75
2023-03-02T09:18:38.767Z,45
2023-03-02T09:24:58.731Z,45
2023-03-02T09:31:21.831Z,50.62
2023-03-02T09:37:44.248Z,50.62
2023-03-02T09:44:04.748Z,56.25
2023-03-02T09:50:24.960Z,56.25
2023-03-02T09:56:47.844Z,61.88
2023-03-02T10:03:16.470Z,61.88
2023-03-02T10:09:30.751Z,67.5
2023-03-02T10:15:50.998Z,67.5
2023-03-02T10:22:13.900Z,67.5
2023-03-02T10:28:33.833Z,67.5
2023-03-02T10:34:56.907Z,73.12
2023-03-02T10:41:16.820Z,73.12
2023-03-02T10:47:39.824Z,73.12
2023-03-02T10:53:59.866Z,73.12
2023-03-02T11:00:22.808Z,78.75
2023-03-02T11:06:42.806Z,78.75
2023-03-02T11:13:05.885Z,84.38
2023-03-02T11:19:25.755Z,84.38
2023-03-02T11:25:48.843Z,90
2023-03-02T11:32:09.094Z,90
2023-03-02T11:38:31.917Z,95.62
2023-03-02T11:44:51.855Z,95.62
2023-03-02T11:51:14.849Z,101.25
2023-03-02T11:57:34.846Z,101.25
2023-03-02T12:03:57.766Z,106.88
2023-03-02T12:10:17.857Z,106.88
2023-03-02T12:16:40.889Z,112.5
2023-03-02T12:23:00.813Z,112.5
2023-03-02T12:29:23.934Z,118.12
2023-03-02T12:35:43.893Z,118.12
2023-03-02T12:42:06.814Z,118.12
2023-03-02T12:48:26.918Z,123.75
2023-03-02T12:54:49.792Z,123.75
2023-03-02T13:01:09.882Z,123.75
2023-03-02T13:07:32.878Z,123.75
2023-03-02T13:13:52.817Z,123.75
2023-03-02T13:20:15.806Z,123.75
2023-03-02T13:26:36.126Z,123.75
2023-03-02T13:32:58.859Z,118.12
2023-03-02T13:39:18.795Z,118.12
2023-03-02T13:45:41.861Z,112.5
2023-03-02T13:52:01.755Z,112.5
2023-03-02T13:58:24.764Z,106.88
2023-03-02T14:04:44.894Z,101.25
2023-03-02T14:11:07.790Z,101.25
2023-03-02T14:33:55.297Z,90
2023-03-02T14:40:14.757Z,90
2023-03-02T14:46:37.838Z,84.38
2023-03-02T14:52:57.801Z,84.38
2023-03-02T14:59:20.768Z,84.38
2023-03-02T15:05:44.194Z,78.75
2023-03-02T15:12:03.892Z,78.75
2023-03-02T15:18:24.071Z,78.75
2023-03-02T15:24:46.812Z,67.5
2023-03-02T15:31:06.903Z,50.62
2023-03-02T15:37:29.751Z,45
2023-03-02T15:43:49.755Z,33.75
2023-03-02T15:50:12.823Z,22.5
2023-03-02T15:56:42.579Z,22.5
2023-03-02T16:02:55.849Z,22.5
2023-03-02T16:09:15.813Z,16.88
2023-03-02T16:15:38.789Z,16.88
2023-03-02T16:21:58.800Z,16.88
2023-03-02T16:28:21.771Z,11.25
2023-03-02T16:34:42.025Z,11.25
2023-03-02T16:41:04.747Z,11.25
2023-03-02T16:47:24.865Z,5.62
2023-03-02T16:53:47.774Z,5.62
2023-03-02T17:00:07.832Z,5.62
2023-03-02T17:06:30.816Z,0
2023-03-02T17:12:50.822Z,0
2023-03-02T17:19:13.822Z,0
2023-03-02T17:25:33.830Z,0
2023-03-02T17:31:56.841Z,0
2023-03-02T17:38:16.736Z,0
2023-03-02T17:44:39.785Z,0
2023-03-02T17:50:59.768Z,0
2023-03-02T17:57:22.859Z,0
2023-03-02T18:03:43.011Z,0
2023-03-02T18:10:05.765Z,0
2023-03-02T18:16:25.836Z,0
2023-03-02T18:22:48.819Z,0
2023-03-02T18:29:08.826Z,0
2023-03-02T18:35:31.873Z,0
2023-03-02T18:41:51.903Z,0
2023-03-02T18:48:14.849Z,0
2023-03-02T18:54:34.789Z,0
2023-03-02T19:00:57.822Z,0
2023-03-02T19:07:17.840Z,0
2023-03-02T19:13:40.732Z,0
2023-03-02T19:20:00.870Z,0
2023-03-02T19:26:23.885Z,0
2023-03-02T19:41:55.683Z,0
2023-03-02T19:48:15.727Z,0
2023-03-02T19:54:38.846Z,0
2023-03-02T20:00:58.906Z,0
2023-03-02T20:07:21.802Z,0
2023-03-02T20:13:41.861Z,0
2023-03-02T20:20:04.815Z,0
2023-03-02T20:26:24.812Z,0
2023-03-02T20:32:47.752Z,0
2023-03-02T20:39:07.771Z,0
2023-03-02T20:45:30.855Z,0
2023-03-02T20:51:50.757Z,0
2023-03-02T20:58:13.791Z,0
2023-03-02T21:04:33.864Z,0
2023-03-02T21:10:56.864Z,0
2023-03-02T21:17:17.057Z,0
2023-03-02T21:23:39.857Z,0
2023-03-02T21:29:59.843Z,0
2023-03-02T21:36:23.051Z,0
2023-03-02T21:42:43.045Z,0
2023-03-02T21:49:05.794Z,0
2023-03-02T21:55:25.833Z,0
2023-03-02T22:01:48.857Z,0
2023-03-02T22:08:08.891Z,0
2023-03-02T22:14:31.838Z,0
2023-03-02T22:20:51.810Z,0
2023-03-02T22:27:14.799Z,0
2023-03-02T22:33:34.861Z,0
2023-03-02T22:39:57.950Z,0
2023-03-02T22:46:17.793Z,0
2023-03-02T22:52:40.822Z,0
2023-03-02T22:59:00.748Z,0
2023-03-02T23:21:58.767Z,0
2023-03-02T23:28:18.748Z,0
2023-03-02T23:34:41.802Z,0
2023-03-02T23:41:02.036Z,0
2023-03-02T23:47:24.790Z,0
2023-03-02T23:53:44.763Z,0
